Time;durP1;ratioP1;P1;durP2;ratioP2;P2;SDS_P1;SDS_P2;PMS_P1;PMS_P2;Temp;Humidity;BMP_temperature;BMP_pressure;BME280_temperature;BME280_humidity;BME280_pressure;Samples;Min_cycle;Max_cycle;Signal;HPM_P1;HPM_P2
2021/06/16 00:00:23;;;;;;;4.60;2.30;;;16.40;99.90;;;;;;5055097;28;20476;-85
2021/06/16 00:02:50;;;;;;;3.40;2.90;;;16.40;99.90;;;;;;5055234;28;20547;-84
2021/06/16 00:05:20;;;;;;;4.30;2.80;;;16.30;99.90;;;;;;5055019;28;20449;-85
2021/06/16 00:07:47;;;;;;;3.57;2.70;;;16.30;99.90;;;;;;5046855;28;20543;-84
2021/06/16 00:10:15;;;;;;;4.50;2.50;;;16.30;99.90;;;;;;5054733;28;20475;-84
2021/06/16 00:12:42;;;;;;;3.63;2.27;;;16.20;99.90;;;;;;5055426;28;20448;-84
2021/06/16 00:15:15;;;;;;;2.70;2.50;;;16.20;99.90;;;;;;5055554;28;20448;-85
2021/06/16 00:17:41;;;;;;;2.00;1.80;;;16.10;99.90;;;;;;5055218;28;20541;-85
2021/06/16 00:20:09;;;;;;;4.20;2.50;;;16.10;99.90;;;;;;5066166;28;20506;-85
2021/06/16 00:22:36;;;;;;;2.83;2.20;;;16.10;99.90;;;;;;5055357;28;20529;-84
2021/06/16 00:25:03;;;;;;;2.97;2.30;;;16.10;99.90;;;;;;5055553;28;20547;-84
2021/06/16 00:27:29;;;;;;;4.53;2.27;;;16.10;99.90;;;;;;5055063;28;20498;-84
2021/06/16 00:29:56;;;;;;;4.13;1.67;;;16.00;99.90;;;;;;5055277;28;20476;-85
2021/06/16 00:32:24;;;;;;;2.43;1.90;;;16.10;99.90;;;;;;5055139;28;20532;-84
2021/06/16 00:34:50;;;;;;;3.90;2.37;;;16.10;99.90;;;;;;5055043;28;20539;-85
2021/06/16 00:37:17;;;;;;;2.90;2.20;;;16.10;99.90;;;;;;5054974;28;20479;-85
2021/06/16 00:39:43;;;;;;;2.97;2.23;;;16.10;99.90;;;;;;5055065;28;20516;-84
2021/06/16 00:42:10;;;;;;;5.80;1.90;;;16.00;99.90;;;;;;5055109;28;20506;-85
2021/06/16 00:44:36;;;;;;;6.83;5.63;;;16.00;99.90;;;;;;5054877;28;20480;-86
2021/06/16 00:47:04;;;;;;;21.70;16.90;;;15.90;99.90;;;;;;5054416;28;20494;-85
2021/06/16 00:49:31;;;;;;;5.77;4.67;;;15.90;99.90;;;;;;5054992;28;20838;-86
2021/06/16 00:51:58;;;;;;;4.50;2.50;;;15.90;99.90;;;;;;5055028;28;20449;-84
2021/06/16 00:54:24;;;;;;;3.47;2.37;;;15.80;99.90;;;;;;5055139;28;20444;-85
2021/06/16 00:56:51;;;;;;;3.70;2.57;;;15.80;99.90;;;;;;5054872;28;20513;-85
2021/06/16 00:59:18;;;;;;;1.90;1.80;;;15.80;99.90;;;;;;5054438;28;20516;-85
2021/06/16 01:01:48;;;;;;;4.40;1.90;;;15.80;99.90;;;;;;5054525;28;20448;-84
2021/06/16 01:04:17;;;;;;;2.07;1.67;;;15.70;99.90;;;;;;5054691;28;20499;-84
2021/06/16 01:06:50;;;;;;;2.27;1.93;;;15.70;99.90;;;;;;5054422;28;20488;-84
2021/06/16 01:09:18;;;;;;;2.53;1.90;;;15.70;99.90;;;;;;5054586;28;20514;-86
2021/06/16 01:11:57;;;;;;;2.57;2.10;;;15.60;99.90;;;;;;5042317;28;21005;-86
2021/06/16 01:14:31;;;;;;;4.87;2.30;;;15.60;99.90;;;;;;5054577;28;20444;-86
2021/06/16 01:17:01;;;;;;;2.97;1.80;;;15.50;99.90;;;;;;5054793;28;20443;-86
2021/06/16 01:19:42;;;;;;;2.87;2.30;;;15.50;99.90;;;;;;5065397;28;20564;-86
2021/06/16 01:22:19;;;;;;;3.67;2.17;;;15.50;99.90;;;;;;5054937;28;20480;-86
2021/06/16 01:24:48;;;;;;;3.30;2.13;;;15.50;99.90;;;;;;5054019;28;20491;-84
2021/06/16 01:27:17;;;;;;;4.03;2.13;;;15.50;99.90;;;;;;5044971;28;20850;-84
2021/06/16 01:29:44;;;;;;;2.90;2.27;;;15.40;99.90;;;;;;5037886;28;20475;-84
2021/06/16 01:32:11;;;;;;;3.13;2.00;;;15.40;99.90;;;;;;5054174;28;21007;-84
2021/06/16 01:34:38;;;;;;;1.60;1.50;;;15.30;99.90;;;;;;5053880;28;20448;-84
2021/06/16 01:37:06;;;;;;;6.13;2.30;;;15.30;99.90;;;;;;5053934;28;20944;-85
2021/06/16 01:39:35;;;;;;;2.50;2.10;;;15.30;99.90;;;;;;5053752;28;21065;-84
2021/06/16 01:42:07;;;;;;;2.67;2.20;;;15.30;99.90;;;;;;5054101;28;20571;-84
2021/06/16 01:44:36;;;;;;;2.90;2.00;;;15.30;99.90;;;;;;5053770;28;20472;-84
2021/06/16 01:47:04;;;;;;;2.47;2.13;;;15.30;99.90;;;;;;5053732;28;20451;-84
2021/06/16 01:49:31;;;;;;;2.43;1.80;;;15.20;99.90;;;;;;5051999;28;20480;-84
2021/06/16 01:51:59;;;;;;;5.60;2.00;;;15.20;99.90;;;;;;5053661;28;20477;-84
2021/06/16 01:54:28;;;;;;;4.73;2.60;;;15.20;99.90;;;;;;5054014;28;20445;-85
2021/06/16 01:56:55;;;;;;;5.37;2.00;;;15.20;99.90;;;;;;5053686;28;20841;-83
2021/06/16 01:59:23;;;;;;;4.57;2.50;;;15.10;99.90;;;;;;5052469;28;20563;-83
2021/06/16 02:01:51;;;;;;;2.67;2.17;;;15.10;99.90;;;;;;5053433;28;20468;-83
2021/06/16 02:04:18;;;;;;;2.33;2.13;;;15.10;99.90;;;;;;5053368;28;20454;-83
2021/06/16 02:06:49;;;;;;;2.60;2.27;;;15.00;99.90;;;;;;5053656;28;20864;-83
2021/06/16 02:09:19;;;;;;;3.83;3.03;;;15.00;99.90;;;;;;5053490;28;20878;-83
2021/06/16 02:11:45;;;;;;;2.07;1.97;;;15.00;99.90;;;;;;5040842;28;20531;-83
2021/06/16 02:14:17;;;;;;;3.20;2.10;;;14.90;99.90;;;;;;5053577;28;20958;-84
2021/06/16 02:16:51;;;;;;;2.80;2.07;;;14.90;99.90;;;;;;5053076;28;20931;-83
2021/06/16 02:19:22;;;;;;;7.20;2.53;;;14.90;99.90;;;;;;5063996;28;20566;-83
2021/06/16 02:21:49;;;;;;;2.40;2.00;;;14.80;99.90;;;;;;5053078;28;20536;-83
2021/06/16 02:24:16;;;;;;;2.53;2.00;;;14.90;99.90;;;;;;5053632;28;20477;-83
2021/06/16 02:26:43;;;;;;;3.07;2.33;;;14.80;99.90;;;;;;5053008;28;20507;-85
2021/06/16 02:29:10;;;;;;;3.60;2.07;;;14.80;99.90;;;;;;5052982;28;20459;-85
2021/06/16 02:31:38;;;;;;;3.63;2.23;;;14.80;99.90;;;;;;5053011;28;20476;-85
2021/06/16 02:34:05;;;;;;;4.90;2.33;;;14.80;99.90;;;;;;5053231;28;20479;-85
2021/06/16 02:36:37;;;;;;;4.20;2.37;;;14.70;99.90;;;;;;5052969;28;20472;-85
2021/06/16 02:39:07;;;;;;;3.63;2.30;;;14.70;99.90;;;;;;5053008;28;21002;-85
2021/06/16 02:41:33;;;;;;;3.00;2.70;;;14.70;99.90;;;;;;5052752;28;20546;-84
2021/06/16 02:44:00;;;;;;;4.03;2.50;;;14.70;99.90;;;;;;5052745;28;20460;-84
2021/06/16 02:46:30;;;;;;;1.90;1.80;;;14.70;99.90;;;;;;5052717;28;20480;-84
2021/06/16 02:48:58;;;;;;;2.27;2.07;;;14.70;99.90;;;;;;5052797;28;20480;-85
2021/06/16 02:51:25;;;;;;;2.80;2.03;;;14.70;99.90;;;;;;5052395;28;20514;-85
2021/06/16 02:53:54;;;;;;;3.60;1.93;;;14.70;99.90;;;;;;5052612;28;20951;-85
2021/06/16 02:56:22;;;;;;;2.00;1.90;;;14.60;99.90;;;;;;5052404;28;20487;-82
2021/06/16 02:58:52;;;;;;;4.33;2.13;;;14.60;99.90;;;;;;5052407;28;20510;-83
2021/06/16 03:01:20;;;;;;;4.13;2.20;;;14.60;99.90;;;;;;5052297;28;20436;-82
2021/06/16 03:03:50;;;;;;;3.20;2.40;;;14.70;99.90;;;;;;5052480;28;20468;-83
2021/06/16 03:06:18;;;;;;;3.30;2.20;;;14.70;99.90;;;;;;5052314;28;20475;-82
2021/06/16 03:08:47;;;;;;;4.33;1.70;;;14.70;99.90;;;;;;5052320;28;20487;-82
2021/06/16 03:11:16;;;;;;;2.20;2.00;;;14.70;99.90;;;;;;5052111;28;20539;-82
2021/06/16 03:13:44;;;;;;;2.60;2.33;;;14.70;99.90;;;;;;5035937;28;20468;-82
2021/06/16 03:16:12;;;;;;;5.30;2.57;;;14.70;99.90;;;;;;5052439;28;20870;-83
2021/06/16 03:18:39;;;;;;;2.90;1.83;;;14.70;99.90;;;;;;5057758;28;20589;-82
2021/06/16 03:21:06;;;;;;;2.33;2.13;;;14.70;99.90;;;;;;5057255;28;20502;-83
2021/06/16 03:23:34;;;;;;;3.43;2.10;;;14.80;99.90;;;;;;5051960;28;20527;-83
2021/06/16 03:26:01;;;;;;;2.87;2.00;;;14.80;99.90;;;;;;5052420;28;20476;-83
2021/06/16 03:28:29;;;;;;;1.80;1.60;;;14.80;99.90;;;;;;5049790;28;20476;-84
2021/06/16 03:30:58;;;;;;;2.00;1.90;;;14.90;99.90;;;;;;5052241;28;20483;-83
2021/06/16 03:33:25;;;;;;;2.23;1.70;;;15.00;99.90;;;;;;5051981;28;20539;-83
2021/06/16 03:35:52;;;;;;;3.50;2.20;;;15.00;99.90;;;;;;5052126;28;20842;-83
2021/06/16 03:38:19;;;;;;;5.90;2.10;;;15.10;99.90;;;;;;5052260;28;20480;-83
2021/06/16 03:40:49;;;;;;;3.00;2.23;;;15.20;99.90;;;;;;5052325;28;20562;-83
2021/06/16 03:43:17;;;;;;;2.40;2.00;;;15.30;99.90;;;;;;5052154;28;20510;-83
2021/06/16 03:45:46;;;;;;;2.30;2.03;;;15.40;99.90;;;;;;5052064;28;20503;-85
2021/06/16 03:48:16;;;;;;;2.50;2.03;;;15.50;99.90;;;;;;5051918;28;20875;-85
2021/06/16 03:50:44;;;;;;;2.73;2.17;;;15.60;99.90;;;;;;5052326;28;20543;-85
2021/06/16 03:53:11;;;;;;;3.20;2.27;;;15.70;99.90;;;;;;5052021;28;20487;-86
2021/06/16 03:55:39;;;;;;;3.03;2.00;;;15.80;99.90;;;;;;5052003;28;20448;-85
2021/06/16 03:58:06;;;;;;;2.80;2.30;;;15.80;99.90;;;;;;5051885;28;20499;-87
2021/06/16 04:00:33;;;;;;;2.63;1.80;;;15.90;99.90;;;;;;5051711;28;20567;-86
2021/06/16 04:03:01;;;;;;;5.10;1.80;;;15.90;99.90;;;;;;5051791;28;20480;-87
2021/06/16 04:05:28;;;;;;;3.30;1.70;;;16.00;99.90;;;;;;5051880;28;20484;-87
2021/06/16 04:07:56;;;;;;;2.10;2.00;;;16.10;99.90;;;;;;5051665;28;21106;-87
2021/06/16 04:10:25;;;;;;;3.87;1.90;;;16.20;99.90;;;;;;5052000;28;20875;-87
2021/06/16 04:12:52;;;;;;;1.80;1.60;;;16.20;99.90;;;;;;5051691;28;20868;-87
2021/06/16 04:15:19;;;;;;;3.50;3.20;;;16.30;99.90;;;;;;5051765;28;20468;-86
2021/06/16 04:17:47;;;;;;;2.73;1.60;;;16.40;99.90;;;;;;5051346;28;20448;-87
2021/06/16 04:20:16;;;;;;;3.00;2.10;;;16.40;99.90;;;;;;5062609;28;20472;-86
2021/06/16 04:22:42;;;;;;;2.07;1.87;;;16.60;99.90;;;;;;5052940;28;20487;-86
2021/06/16 04:25:10;;;;;;;3.63;2.30;;;16.60;99.90;;;;;;5053602;28;20463;-86
2021/06/16 04:27:37;;;;;;;2.00;1.80;;;16.70;99.90;;;;;;5053865;28;20463;-87
2021/06/16 04:30:06;;;;;;;4.90;1.77;;;16.70;99.90;;;;;;5054236;28;20886;-87
2021/06/16 04:32:33;;;;;;;2.20;1.63;;;16.70;99.90;;;;;;5053766;28;20535;-87
2021/06/16 04:34:59;;;;;;;2.40;1.47;;;16.80;99.90;;;;;;5055210;28;20472;-87
2021/06/16 04:37:27;;;;;;;2.83;1.87;;;16.80;99.90;;;;;;5054883;28;20543;-86
2021/06/16 04:39:54;;;;;;;2.60;1.57;;;16.90;99.90;;;;;;5055154;28;20566;-87
2021/06/16 04:42:20;;;;;;;1.63;1.53;;;16.90;99.90;;;;;;5055020;28;21032;-87
2021/06/16 04:44:47;;;;;;;2.13;1.77;;;17.00;99.90;;;;;;5054635;28;20472;-88
2021/06/16 04:47:13;;;;;;;1.73;1.40;;;17.10;99.90;;;;;;5054995;28;20543;-88
2021/06/16 04:49:40;;;;;;;2.20;1.67;;;17.20;99.90;;;;;;5054902;28;20503;-87
2021/06/16 04:52:07;;;;;;;3.57;1.60;;;17.20;99.90;;;;;;5054793;28;20444;-87
2021/06/16 04:54:35;;;;;;;4.50;1.60;;;17.30;99.90;;;;;;5054778;28;20487;-87
2021/06/16 04:57:04;;;;;;;2.47;1.40;;;17.30;99.90;;;;;;5054704;28;20538;-87
2021/06/16 04:59:34;;;;;;;1.40;1.20;;;17.40;99.90;;;;;;5054415;28;20593;-86
2021/06/16 05:02:01;;;;;;;1.40;1.30;;;17.50;99.90;;;;;;5054854;28;20871;-85
2021/06/16 05:04:28;;;;;;;1.77;1.60;;;17.50;99.90;;;;;;5054717;28;20488;-85
2021/06/16 05:06:55;;;;;;;2.90;1.60;;;17.60;99.90;;;;;;5054526;28;20480;-85
2021/06/16 05:09:23;;;;;;;2.17;1.93;;;17.60;99.90;;;;;;5054284;28;20480;-86
2021/06/16 05:11:51;;;;;;;2.23;1.67;;;17.50;99.90;;;;;;5054215;28;20466;-86
2021/06/16 05:14:18;;;;;;;3.67;1.73;;;17.60;99.90;;;;;;5054368;28;20483;-86
2021/06/16 05:16:44;;;;;;;3.43;1.93;;;17.60;99.90;;;;;;5054517;28;20480;-85
2021/06/16 05:19:15;;;;;;;1.60;1.43;;;17.60;99.90;;;;;;5064202;28;20447;-89
2021/06/16 05:21:43;;;;;;;1.47;1.10;;;17.60;99.90;;;;;;5037912;28;20448;-89
2021/06/16 05:24:09;;;;;;;2.60;1.33;;;17.60;99.90;;;;;;5054361;28;20448;-89
2021/06/16 05:26:37;;;;;;;2.90;1.63;;;17.60;99.90;;;;;;5054572;28;20483;-89
2021/06/16 05:29:05;;;;;;;1.77;1.40;;;17.60;99.90;;;;;;5054704;28;20494;-87
2021/06/16 05:31:31;;;;;;;2.33;1.50;;;17.60;99.90;;;;;;5054036;28;20449;-87
2021/06/16 05:33:58;;;;;;;1.83;1.30;;;17.70;99.90;;;;;;5054161;28;20483;-88
2021/06/16 05:36:25;;;;;;;5.00;1.70;;;17.70;99.90;;;;;;5065031;28;20478;-88
2021/06/16 05:38:52;;;;;;;1.70;1.27;;;17.90;99.90;;;;;;5068880;28;20504;-88
2021/06/16 05:41:19;;;;;;;3.20;1.40;;;18.00;99.90;;;;;;5057175;28;20870;-88
2021/06/16 05:43:45;;;;;;;2.37;1.50;;;18.10;99.90;;;;;;5053730;28;20990;-90
2021/06/16 05:46:13;;;;;;;2.87;1.67;;;18.20;99.90;;;;;;5054245;28;20448;-90
2021/06/16 05:48:41;;;;;;;1.67;1.17;;;18.40;99.90;;;;;;5054167;28;20456;-91
2021/06/16 05:51:08;;;;;;;3.83;1.20;;;18.60;99.90;;;;;;5054092;28;20851;-90
2021/06/16 05:53:34;;;;;;;1.47;1.30;;;18.80;99.90;;;;;;5054017;28;20448;-90
2021/06/16 05:56:01;;;;;;;1.40;1.30;;;19.10;99.90;;;;;;5052443;28;20869;-92
2021/06/16 05:58:28;;;;;;;2.50;1.37;;;19.30;99.90;;;;;;5059551;28;20443;-90
2021/06/16 06:00:54;;;;;;;3.67;1.50;;;19.50;99.90;;;;;;5060255;28;20471;-91
2021/06/16 06:03:22;;;;;;;1.53;1.30;;;19.50;99.90;;;;;;5063640;28;20491;-91
2021/06/16 06:05:51;;;;;;;3.13;1.50;;;20.40;99.90;;;;;;5063526;28;20448;-90
2021/06/16 06:08:18;;;;;;;2.63;1.40;;;20.90;99.90;;;;;;5058690;28;20449;-92
2021/06/16 06:10:45;;;;;;;2.00;1.50;;;21.40;99.90;;;;;;5054102;28;20498;-92
2021/06/16 06:13:11;;;;;;;2.20;1.23;;;21.90;99.90;;;;;;5054093;28;20761;-92
2021/06/16 06:15:38;;;;;;;2.80;1.20;;;22.40;99.90;;;;;;5054130;28;20552;-91
2021/06/16 06:18:05;;;;;;;1.30;1.00;;;22.90;99.90;;;;;;5054412;28;20488;-93
2021/06/16 06:20:32;;;;;;;2.00;1.27;;;23.20;99.90;;;;;;5062468;28;20515;-93
2021/06/16 06:22:59;;;;;;;3.03;1.50;;;23.70;99.90;;;;;;5052668;28;20479;-91
2021/06/16 06:25:26;;;;;;;2.63;1.13;;;24.00;99.90;;;;;;5052968;28;20481;-92
2021/06/16 06:27:52;;;;;;;1.77;1.40;;;24.00;99.90;;;;;;5053135;28;20994;-90
2021/06/16 06:30:19;;;;;;;1.10;1.00;;;24.20;99.50;;;;;;5052567;28;20453;-88
2021/06/16 06:32:45;;;;;;;1.60;1.03;;;24.50;99.00;;;;;;5052537;28;21010;-88
2021/06/16 06:35:12;;;;;;;2.80;1.20;;;24.80;98.60;;;;;;5052765;28;20531;-88
2021/06/16 06:37:40;;;;;;;2.80;1.20;;;25.00;98.30;;;;;;5052918;28;20902;-88
2021/06/16 06:40:08;;;;;;;1.53;1.30;;;25.10;98.00;;;;;;5052818;28;20573;-88
2021/06/16 06:42:35;;;;;;;5.77;1.33;;;25.30;97.50;;;;;;5052850;28;20484;-89
2021/06/16 06:45:01;;;;;;;2.20;0.90;;;25.50;97.40;;;;;;5052708;28;21067;-92
2021/06/16 06:47:31;;;;;;;1.33;1.00;;;25.70;97.40;;;;;;5052937;28;20559;-90
2021/06/16 06:50:00;;;;;;;1.67;1.40;;;25.70;96.50;;;;;;5053638;28;20459;-89
2021/06/16 06:52:26;;;;;;;1.70;1.10;;;25.80;96.40;;;;;;5052950;28;20528;-77
2021/06/16 06:54:54;;;;;;;2.67;1.10;;;25.90;95.50;;;;;;5052385;28;20543;-90
2021/06/16 06:57:21;;;;;;;2.17;1.30;;;25.90;95.00;;;;;;5053128;28;20502;-91
2021/06/16 06:59:47;;;;;;;4.33;1.30;;;26.00;95.10;;;;;;5053322;28;20543;-95
2021/06/16 07:02:14;;;;;;;1.57;1.30;;;26.10;94.90;;;;;;5053293;28;20476;-88
2021/06/16 07:04:40;;;;;;;1.53;1.00;;;26.20;94.30;;;;;;5052877;28;20877;-91
2021/06/16 07:07:10;;;;;;;1.80;1.10;;;26.30;94.50;;;;;;5053686;28;20460;-96
2021/06/16 07:09:36;;;;;;;2.83;1.27;;;26.40;94.40;;;;;;5053193;28;20494;-92
2021/06/16 07:12:05;;;;;;;2.37;1.20;;;26.50;94.30;;;;;;5050718;28;20472;-87
2021/06/16 07:14:32;;;;;;;5.13;1.07;;;26.60;93.80;;;;;;5051413;28;20540;-87
2021/06/16 07:16:58;;;;;;;4.03;1.30;;;26.70;94.10;;;;;;5051632;28;20444;-77
2021/06/16 07:19:25;;;;;;;5.40;1.20;;;26.90;94.30;;;;;;5043327;28;20472;-73
2021/06/16 07:21:51;;;;;;;2.10;1.20;;;27.00;92.70;;;;;;5051825;28;20932;-73
2021/06/16 07:24:18;;;;;;;3.53;1.10;;;27.10;92.60;;;;;;5056108;28;20452;-73
2021/06/16 07:26:44;;;;;;;1.47;1.20;;;27.10;92.50;;;;;;5050504;28;20448;-73
2021/06/16 07:29:12;;;;;;;4.30;1.53;;;27.20;92.00;;;;;;5051649;28;20531;-73
2021/06/16 07:31:39;;;;;;;1.73;1.10;;;27.20;92.10;;;;;;5050667;28;20823;-74
2021/06/16 07:34:05;;;;;;;1.37;1.00;;;27.40;92.10;;;;;;5051279;28;20472;-73
2021/06/16 07:36:32;;;;;;;1.70;1.10;;;27.30;92.30;;;;;;5052301;28;20488;-73
2021/06/16 07:38:59;;;;;;;1.93;1.33;;;27.20;92.20;;;;;;5052209;28;20475;-72
2021/06/16 07:41:26;;;;;;;2.20;1.50;;;27.30;91.70;;;;;;5051638;28;20476;-73
2021/06/16 07:43:52;;;;;;;3.87;1.27;;;27.30;91.50;;;;;;5048282;28;20531;-73
2021/06/16 07:46:20;;;;;;;2.87;1.17;;;27.40;91.90;;;;;;5049491;28;20542;-73
2021/06/16 07:48:47;;;;;;;1.50;0.90;;;27.40;91.40;;;;;;5047762;28;20445;-73
2021/06/16 07:51:13;;;;;;;1.20;0.90;;;27.50;91.00;;;;;;5051769;28;20583;-73
2021/06/16 07:53:41;;;;;;;3.03;1.30;;;27.50;91.20;;;;;;5051573;28;20544;-73
2021/06/16 07:56:07;;;;;;;2.00;1.10;;;27.50;90.90;;;;;;5051348;28;20452;-74
2021/06/16 07:58:34;;;;;;;3.27;1.37;;;27.50;91.20;;;;;;5054078;28;20535;-73
2021/06/16 08:01:00;;;;;;;1.83;1.30;;;27.40;91.30;;;;;;5055830;28;20574;-73
2021/06/16 08:03:29;;;;;;;1.93;1.10;;;27.50;91.50;;;;;;5055560;28;20451;-73
2021/06/16 08:05:57;;;;;;;1.33;1.10;;;27.50;91.00;;;;;;5055939;28;20487;-73
2021/06/16 08:08:24;;;;;;;1.57;1.43;;;27.40;91.10;;;;;;5055554;28;21002;-73
2021/06/16 08:10:51;;;;;;;2.23;1.20;;;27.40;91.30;;;;;;5055619;28;20513;-73
2021/06/16 08:13:18;;;;;;;1.70;1.27;;;27.30;91.80;;;;;;5055681;28;20472;-73
2021/06/16 08:15:44;;;;;;;1.93;1.23;;;27.30;92.50;;;;;;5055718;28;20886;-73
2021/06/16 08:18:12;;;;;;;8.33;4.80;;;27.30;92.20;;;;;;5057308;28;20531;-73
2021/06/16 08:20:41;;;;;;;3.53;1.80;;;27.30;92.20;;;;;;5063836;28;21036;-73
2021/06/16 08:23:08;;;;;;;1.80;1.50;;;27.30;92.60;;;;;;5055389;28;20501;-73
2021/06/16 08:25:34;;;;;;;1.50;1.40;;;27.20;93.20;;;;;;5055100;28;20452;-73
2021/06/16 08:28:01;;;;;;;2.57;1.30;;;27.20;93.10;;;;;;5055331;28;20523;-74
2021/06/16 08:30:28;;;;;;;1.90;1.57;;;27.10;92.70;;;;;;5054665;28;20534;-74
2021/06/16 08:32:55;;;;;;;2.17;1.60;;;27.00;92.20;;;;;;5055146;28;20531;-73
2021/06/16 08:35:21;;;;;;;1.30;1.20;;;26.90;92.50;;;;;;5054751;28;21017;-74
2021/06/16 08:37:49;;;;;;;3.03;1.60;;;26.80;92.90;;;;;;5054977;28;20535;-73
2021/06/16 08:40:16;;;;;;;1.80;1.37;;;26.70;92.70;;;;;;5054594;28;20472;-74
2021/06/16 08:42:45;;;;;;;5.73;1.37;;;26.60;92.90;;;;;;5055026;28;20445;-73
2021/06/16 08:45:13;;;;;;;3.40;2.97;;;26.40;93.20;;;;;;5054494;28;20447;-73
2021/06/16 08:47:41;;;;;;;2.37;1.50;;;26.30;92.90;;;;;;5054743;28;20480;-73
2021/06/16 08:50:11;;;;;;;1.80;1.43;;;26.00;92.90;;;;;;5054760;28;20839;-74
2021/06/16 08:52:39;;;;;;;2.90;1.30;;;26.00;94.00;;;;;;5055092;28;20479;-73
2021/06/16 08:55:09;;;;;;;1.93;1.40;;;25.90;93.60;;;;;;5054833;28;20543;-73
2021/06/16 08:57:36;;;;;;;1.60;1.30;;;25.90;94.00;;;;;;5054704;28;20544;-74
2021/06/16 09:00:04;;;;;;;2.20;1.50;;;25.80;94.10;;;;;;5054518;28;20464;-74
2021/06/16 09:02:31;;;;;;;1.87;1.40;;;25.70;94.20;;;;;;5054661;28;20808;-74
2021/06/16 09:04:58;;;;;;;2.30;1.23;;;25.70;93.90;;;;;;5054475;28;20859;-74
2021/06/16 09:07:25;;;;;;;1.53;1.43;;;25.60;94.40;;;;;;5054409;28;20456;-74
2021/06/16 09:10:09;;;;;;;1.60;1.50;;;25.60;94.30;;;;;;5054100;28;20535;-74
2021/06/16 09:12:39;;;;;;;3.27;1.23;;;25.60;93.70;;;;;;5054488;28;20452;-74
2021/06/16 09:15:12;;;;;;;1.43;1.23;;;25.60;93.90;;;;;;5054260;28;20448;-74
2021/06/16 09:17:38;;;;;;;1.40;1.20;;;25.60;94.40;;;;;;5053952;28;20521;-74
2021/06/16 09:20:07;;;;;;;2.93;2.17;;;25.50;94.00;;;;;;5064883;28;20499;-74
2021/06/16 09:22:35;;;;;;;1.90;1.40;;;25.50;93.90;;;;;;5054431;28;20555;-74
2021/06/16 09:25:06;;;;;;;4.83;1.30;;;25.50;94.00;;;;;;5054277;28;20486;-74
2021/06/16 09:27:45;;;;;;;2.57;1.60;;;25.50;93.40;;;;;;5054003;28;20899;-74
2021/06/16 09:30:32;;;;;;;4.70;1.43;;;25.50;93.00;;;;;;5054016;28;20444;-74
2021/06/16 09:32:59;;;;;;;1.77;1.60;;;25.50;92.80;;;;;;5046445;28;20547;-74
2021/06/16 09:35:28;;;;;;;2.80;2.43;;;25.50;93.00;;;;;;5053566;28;20531;-74
2021/06/16 09:37:55;;;;;;;5.33;4.50;;;25.50;92.00;;;;;;5053619;28;20455;-74
2021/06/16 09:40:25;;;;;;;2.20;2.00;;;25.50;92.00;;;;;;5053837;28;20868;-74
2021/06/16 09:42:57;;;;;;;2.83;1.60;;;25.40;92.70;;;;;;5036139;28;20444;-75
2021/06/16 09:45:23;;;;;;;2.60;1.83;;;25.40;92.30;;;;;;5053749;28;20448;-74
2021/06/16 09:47:50;;;;;;;1.97;1.63;;;25.40;92.30;;;;;;5053761;28;20912;-74
2021/06/16 09:50:22;;;;;;;2.60;1.47;;;25.40;92.30;;;;;;5053687;28;20527;-74
2021/06/16 09:52:48;;;;;;;2.10;1.40;;;25.30;91.70;;;;;;5053576;28;20472;-75
2021/06/16 09:55:27;;;;;;;1.83;1.50;;;25.30;91.40;;;;;;5053424;28;20538;-74
2021/06/16 09:58:06;;;;;;;2.27;1.83;;;25.20;91.10;;;;;;5038622;28;20448;-74
2021/06/16 10:00:35;;;;;;;1.77;1.67;;;25.10;91.70;;;;;;5053311;28;20483;-74
2021/06/16 10:03:09;;;;;;;3.67;2.20;;;25.00;91.70;;;;;;5053535;28;20448;-74
2021/06/16 10:05:36;;;;;;;2.57;1.10;;;25.00;92.40;;;;;;5053038;28;20540;-74
2021/06/16 10:08:03;;;;;;;2.13;1.60;;;24.90;90.70;;;;;;5053396;28;20543;-74
2021/06/16 10:10:29;;;;;;;2.53;1.30;;;24.80;90.70;;;;;;5052076;28;20453;-74
2021/06/16 10:12:56;;;;;;;3.73;1.30;;;24.80;90.60;;;;;;5052098;28;20483;-74
2021/06/16 10:15:24;;;;;;;2.60;1.30;;;24.80;90.10;;;;;;5053169;28;20498;-74
2021/06/16 10:17:51;;;;;;;3.43;1.20;;;24.70;89.70;;;;;;5048748;28;20558;-75
2021/06/16 10:20:20;;;;;;;2.10;1.37;;;24.70;90.80;;;;;;5045165;28;20547;-74
2021/06/16 10:22:49;;;;;;;1.53;1.27;;;24.70;90.40;;;;;;5052267;28;20503;-74
2021/06/16 10:25:15;;;;;;;1.20;1.10;;;24.70;91.00;;;;;;5052815;28;20835;-74
2021/06/16 10:27:54;;;;;;;3.83;1.40;;;24.70;91.00;;;;;;5036263;28;20517;-74
2021/06/16 10:30:25;;;;;;;2.10;1.43;;;24.70;90.50;;;;;;5052522;28;21033;-74
2021/06/16 10:32:52;;;;;;;1.70;1.60;;;24.70;90.40;;;;;;5051488;28;20539;-75
2021/06/16 10:35:35;;;;;;;2.23;1.50;;;24.70;90.50;;;;;;5047865;28;20535;-74
2021/06/16 10:38:11;;;;;;;2.80;1.63;;;24.70;90.00;;;;;;5050267;28;20932;-74
2021/06/16 10:40:46;;;;;;;1.73;1.30;;;24.70;90.50;;;;;;5050048;28;20538;-74
2021/06/16 10:43:14;;;;;;;1.47;1.37;;;24.80;90.90;;;;;;5051658;28;20452;-74
2021/06/16 10:45:49;;;;;;;3.53;1.30;;;24.80;90.30;;;;;;5053052;28;20805;-74
2021/06/16 10:48:16;;;;;;;1.20;1.10;;;24.90;89.90;;;;;;5052819;28;20440;-74
2021/06/16 10:51:02;;;;;;;2.33;1.20;;;24.90;90.30;;;;;;5052874;28;20440;-74
2021/06/16 10:53:29;;;;;;;4.30;1.50;;;24.90;90.20;;;;;;5052309;28;20502;-74
2021/06/16 10:56:07;;;;;;;3.23;1.90;;;25.00;89.40;;;;;;5052676;28;20480;-74
2021/06/16 10:58:42;;;;;;;2.40;1.40;;;25.10;87.50;;;;;;5052524;28;20468;-74
2021/06/16 11:01:12;;;;;;;2.13;1.40;;;25.10;87.20;;;;;;5052602;28;20554;-74
2021/06/16 11:04:04;;;;;;;1.73;1.37;;;25.10;87.70;;;;;;5052182;28;20491;-74
2021/06/16 11:06:40;;;;;;;2.60;1.37;;;25.10;88.90;;;;;;5050933;28;20471;-74
2021/06/16 11:09:09;;;;;;;1.60;1.40;;;25.10;90.30;;;;;;5051461;28;20452;-74
2021/06/16 11:12:06;;;;;;;2.70;1.60;;;25.10;91.10;;;;;;5051561;28;20479;-74
2021/06/16 11:14:47;;;;;;;1.80;1.50;;;25.10;91.50;;;;;;5052635;28;20803;-74
2021/06/16 11:17:42;;;;;;;3.20;1.63;;;25.10;91.20;;;;;;5052389;28;20531;-74
2021/06/16 11:20:11;;;;;;;2.03;1.50;;;25.20;91.00;;;;;;5061266;28;20441;-74
2021/06/16 11:22:40;;;;;;;2.20;1.30;;;25.20;91.40;;;;;;5052171;28;20610;-74
2021/06/16 11:25:10;;;;;;;3.13;1.70;;;25.20;90.70;;;;;;5052484;28;20514;-74
2021/06/16 11:27:57;;;;;;;1.70;1.60;;;25.20;90.60;;;;;;5052172;28;20463;-74
2021/06/16 11:30:40;;;;;;;2.50;1.57;;;25.20;91.30;;;;;;5052413;28;20475;-74
2021/06/16 11:33:30;;;;;;;2.13;1.93;;;25.30;91.20;;;;;;5055877;28;20440;-74
2021/06/16 11:35:59;;;;;;;1.40;1.30;;;25.30;91.80;;;;;;5042116;28;20445;-74
2021/06/16 11:38:32;;;;;;;3.63;1.63;;;25.30;91.10;;;;;;5056421;28;20459;-74
2021/06/16 11:41:05;;;;;;;2.53;1.87;;;25.20;90.80;;;;;;5056417;28;20471;-74
2021/06/16 11:43:35;;;;;;;2.50;1.60;;;25.20;91.20;;;;;;5055979;28;20531;-74
2021/06/16 11:46:04;;;;;;;2.40;1.30;;;25.20;91.30;;;;;;5056254;28;20452;-74
2021/06/16 11:48:32;;;;;;;1.50;1.40;;;25.20;91.60;;;;;;5056168;28;20554;-74
2021/06/16 11:50:58;;;;;;;2.10;1.53;;;25.30;91.20;;;;;;5056125;28;20878;-74
2021/06/16 11:53:27;;;;;;;2.20;1.97;;;25.30;91.40;;;;;;5055901;28;20486;-74
2021/06/16 11:55:54;;;;;;;1.80;1.50;;;25.40;91.10;;;;;;5055899;28;20448;-74
2021/06/16 11:58:26;;;;;;;2.30;1.70;;;25.40;91.00;;;;;;5055981;28;20487;-75
2021/06/16 12:01:03;;;;;;;2.77;1.47;;;25.40;91.10;;;;;;5036046;28;20453;-74
2021/06/16 12:03:31;;;;;;;5.00;1.60;;;25.40;91.10;;;;;;5035805;28;20455;-74
2021/06/16 12:06:02;;;;;;;3.67;1.70;;;25.30;91.00;;;;;;5036111;28;20532;-74
2021/06/16 12:08:28;;;;;;;2.00;1.73;;;25.30;91.30;;;;;;5035639;28;20782;-74
2021/06/16 12:10:56;;;;;;;1.80;1.70;;;25.40;91.00;;;;;;5035928;28;20465;-74
2021/06/16 12:13:22;;;;;;;2.17;1.60;;;25.40;91.60;;;;;;5035647;28;20457;-74
2021/06/16 12:15:49;;;;;;;2.13;1.47;;;25.40;91.30;;;;;;5035670;28;20951;-74
2021/06/16 12:18:17;;;;;;;2.00;1.90;;;25.40;91.80;;;;;;5037929;28;20449;-74
2021/06/16 12:20:47;;;;;;;2.20;2.00;;;25.50;91.80;;;;;;5043508;28;20869;-75
2021/06/16 12:23:22;;;;;;;3.30;1.80;;;25.50;91.30;;;;;;5035681;28;20481;-74
2021/06/16 12:25:49;;;;;;;6.30;1.80;;;25.60;91.40;;;;;;5020152;28;20448;-74
2021/06/16 12:28:16;;;;;;;1.90;1.80;;;25.60;91.80;;;;;;5035404;28;20461;-74
2021/06/16 12:30:44;;;;;;;2.00;1.47;;;25.50;91.80;;;;;;5035549;28;20448;-74
2021/06/16 12:33:17;;;;;;;8.47;7.53;;;25.60;91.70;;;;;;5035353;28;20797;-74
2021/06/16 12:35:56;;;;;;;6.57;5.43;;;25.60;91.80;;;;;;5019467;28;20452;-74
2021/06/16 12:38:37;;;;;;;2.57;1.80;;;25.60;91.80;;;;;;5035344;28;20472;-74
2021/06/16 12:41:20;;;;;;;3.10;1.97;;;25.70;91.40;;;;;;5035307;28;21041;-74
2021/06/16 12:43:47;;;;;;;2.63;1.77;;;25.80;91.50;;;;;;5034281;28;20540;-74
2021/06/16 12:46:14;;;;;;;2.90;2.07;;;25.80;91.20;;;;;;5035289;28;20545;-74
2021/06/16 12:48:40;;;;;;;2.10;1.83;;;25.80;91.80;;;;;;5034955;28;20968;-74
2021/06/16 12:51:08;;;;;;;5.87;5.37;;;25.90;91.80;;;;;;5035273;28;20556;-74
2021/06/16 12:53:38;;;;;;;2.23;2.00;;;25.90;91.30;;;;;;5034919;28;20532;-74
2021/06/16 12:56:05;;;;;;;2.33;1.77;;;25.90;91.00;;;;;;5034945;28;20537;-74